CheckWX is a tool to help pilots better visualize weather data.  It is not intended as a substitute for an official pre-flight weather briefing.

00:22:56 UTC

FALA METAR
Lanseria Airport
Johannesburg, South Africa
Current

1 hour ago

FALA 222300Z AUTO VRB01KT //// // ////// 12/00 Q1031
Observed
Aug-22 @ 23:00 UTC
Wind
  • Variable at 1 KTS
Visibility
Temperature
12°C / 54°F
Dewpoint
C / 32°F
Humidity
44%
Altimeter
30.44" Hg
Pressure
1030.92 hPa
Previous

2 hours ago

FALA 222200Z AUTO 00000KT //// // ////// 12/00 Q1031
Observed
Aug-22 @ 22:00 UTC
Visibility
Temperature
12°C / 54°F
Dewpoint
C / 32°F
Humidity
44%
Altimeter
30.44" Hg
Pressure
1030.92 hPa
Previous

4 hours ago

FALA 222000Z 00000KT CAVOK 15/00 Q1031 NOSIG
Observed
Aug-22 @ 20:00 UTC
Visibility
10,000+ meters
Flight Rules
VFR
Cloud Levels
  • Clear skies
Temperature
15°C / 59°F
Dewpoint
C / 32°F
Humidity
36%
Altimeter
30.44" Hg
Pressure
1030.92 hPa